Time,TemperatureF,DewpointF,PressureIn,WindDirection,WindDirectionDegrees,WindSpeedMPH,WindSpeedGustMPH,Humidity,HourlyPrecipIn,Conditions,Clouds,dailyrainin,SoftwareType,DateUTC
2013-07-27 00:00:00,67.4,54.8,30.06,NNE,22,1.0,6.0,64,0.00,,---,0.00,VWS V14.01,2013-07-27 05:00:00,
2013-07-27 00:10:00,66.8,54.7,30.06,NE,45,1.0,7.0,65,0.00,,---,0.00,VWS V14.01,2013-07-27 05:10:00,
2013-07-27 00:20:00,66.3,54.6,30.06,NE,45,1.0,6.0,66,0.00,,---,0.00,VWS V14.01,2013-07-27 05:20:00,
2013-07-27 00:30:00,65.6,54.4,30.06,NE,45,2.0,12.0,67,0.00,,---,0.00,VWS V14.01,2013-07-27 05:30:00,
2013-07-27 00:40:00,64.7,54.7,30.06,NE,45,3.0,9.0,70,0.00,,---,0.00,VWS V14.01,2013-07-27 05:40:00,
2013-07-27 00:50:00,64.0,54.8,30.07,NE,45,1.0,6.0,72,0.00,,---,0.00,VWS V14.01,2013-07-27 05:50:00,
2013-07-27 01:00:00,63.5,54.7,30.07,NE,45,0.0,3.0,73,0.00,,---,0.00,VWS V14.01,2013-07-27 06:00:00,
2013-07-27 01:10:00,63.4,54.6,30.07,NE,45,1.0,7.0,73,0.00,,---,0.00,VWS V14.01,2013-07-27 06:10:00,
2013-07-27 01:20:00,63.2,54.4,30.07,NE,45,0.0,5.0,73,0.00,,---,0.00,VWS V14.01,2013-07-27 06:20:00,
2013-07-27 01:30:00,62.9,54.5,30.06,NE,45,1.0,5.0,74,0.00,,---,0.00,VWS V14.01,2013-07-27 06:30:00,
2013-07-27 01:40:00,62.7,54.3,30.06,NE,45,0.0,5.0,74,0.00,,---,0.00,VWS V14.01,2013-07-27 06:40:00,
2013-07-27 01:50:00,62.6,54.6,30.06,NNE,22,0.0,4.0,75,0.00,,---,0.00,VWS V14.01,2013-07-27 06:50:00,
2013-07-27 02:00:00,62.4,54.4,30.07,NE,45,0.0,5.0,75,0.00,,---,0.00,VWS V14.01,2013-07-27 07:00:00,
2013-07-27 02:10:00,62.3,54.3,30.07,NE,45,0.0,2.0,75,0.00,,---,0.00,VWS V14.01,2013-07-27 07:10:00,
2013-07-27 02:20:00,62.1,54.5,30.06,NE,45,0.0,3.0,76,0.00,,---,0.00,VWS V14.01,2013-07-27 07:20:00,
2013-07-27 02:30:00,61.8,54.2,30.06,NE,45,0.0,5.0,76,0.00,,---,0.00,VWS V14.01,2013-07-27 07:30:00,
2013-07-27 02:40:00,61.3,54.0,30.06,NE,45,1.0,6.0,77,0.00,,---,0.00,VWS V14.01,2013-07-27 07:40:00,
2013-07-27 02:50:00,61.2,54.3,30.06,NE,45,0.0,6.0,78,0.00,,---,0.00,VWS V14.01,2013-07-27 07:50:00,
2013-07-27 03:00:00,60.7,54.2,30.06,NE,45,0.0,6.0,79,0.00,,---,0.00,VWS V14.01,2013-07-27 08:00:00,
2013-07-27 03:10:00,60.2,54.4,30.06,NE,45,0.0,0.0,81,0.00,,---,0.00,VWS V14.01,2013-07-27 08:10:00,
2013-07-27 03:20:00,59.9,54.7,30.05,NE,45,0.0,0.0,83,0.00,,---,0.00,VWS V14.01,2013-07-27 08:20:00,
2013-07-27 03:30:00,59.9,54.7,30.05,NE,45,0.0,0.0,83,0.00,,---,0.00,VWS V14.01,2013-07-27 08:30:00,
2013-07-27 03:40:00,59.8,54.6,30.05,NE,45,0.0,0.0,83,0.00,,---,0.00,VWS V14.01,2013-07-27 08:40:00,
2013-07-27 03:50:00,59.8,54.6,30.04,NE,45,0.0,0.0,83,0.00,,---,0.00,VWS V14.01,2013-07-27 08:50:00,
2013-07-27 04:00:00,59.5,54.7,30.03,NE,45,0.0,0.0,84,0.00,,---,0.00,VWS V14.01,2013-07-27 09:00:00,
2013-07-27 04:10:00,59.3,54.8,30.03,NE,45,0.0,1.0,85,0.00,,---,0.00,VWS V14.01,2013-07-27 09:10:00,
2013-07-27 04:20:00,59.2,55.0,30.03,NE,45,0.0,1.0,86,0.00,,---,0.00,VWS V14.01,2013-07-27 09:20:00,
2013-07-27 04:30:00,59.3,55.1,30.02,NE,45,3.0,6.0,86,0.00,,---,0.00,VWS V14.01,2013-07-27 09:30:00,
2013-07-27 04:40:00,59.0,55.1,30.02,NE,45,5.0,5.0,87,0.00,,---,0.00,VWS V14.01,2013-07-27 09:40:00,
2013-07-27 04:50:00,58.7,54.8,30.02,NE,45,2.0,6.0,87,0.00,,---,0.00,VWS V14.01,2013-07-27 09:50:00,
2013-07-27 05:00:00,58.7,55.2,30.05,NE,45,0.0,0.0,88,0.00,,---,0.00,VWS V14.01,2013-07-27 10:00:00,
2013-07-27 05:10:00,58.9,55.4,30.05,NE,45,0.0,0.0,88,0.00,,---,0.00,VWS V14.01,2013-07-27 10:10:00,
2013-07-27 05:20:00,58.7,55.2,30.05,NE,45,0.0,0.0,88,0.00,,---,0.00,VWS V14.01,2013-07-27 10:20:00,
2013-07-27 05:30:00,58.7,55.2,30.06,NE,45,0.0,0.0,88,0.00,,---,0.00,VWS V14.01,2013-07-27 10:30:00,
2013-07-27 05:40:00,58.9,55.0,30.06,NE,45,0.0,1.0,87,0.00,,---,0.00,VWS V14.01,2013-07-27 10:40:00,
2013-07-27 05:50:00,59.2,54.7,30.05,NE,45,0.0,0.0,85,0.00,,---,0.00,VWS V14.01,2013-07-27 10:50:00,
2013-07-27 06:00:00,59.5,54.7,30.07,NE,45,0.0,0.0,84,0.00,,---,0.00,VWS V14.01,2013-07-27 11:00:00,
2013-07-27 06:10:00,59.9,54.4,30.07,NE,45,0.0,0.0,82,0.00,,---,0.00,VWS V14.01,2013-07-27 11:10:00,
2013-07-27 06:20:00,60.5,54.7,30.07,North,0,0.0,2.0,81,0.00,,---,0.00,VWS V14.01,2013-07-27 11:20:00,
2013-07-27 06:30:00,60.2,55.0,30.10,NW,315,2.0,12.0,83,0.00,,---,0.05,VWS V14.01,2013-07-27 11:30:00,
2013-07-27 06:40:00,59.6,55.7,30.10,NE,45,0.0,8.0,87,0.00,,---,0.10,VWS V14.01,2013-07-27 11:40:00,
2013-07-27 06:50:00,59.0,56.1,30.10,NE,45,0.0,10.0,90,0.00,,---,0.13,VWS V14.01,2013-07-27 11:50:00,
2013-07-27 07:00:00,58.9,56.3,30.11,NE,45,0.0,0.0,91,0.00,,---,0.14,VWS V14.01,2013-07-27 12:00:00,
2013-07-27 07:10:00,58.6,56.3,30.11,NW,315,0.0,3.0,92,0.00,,---,0.16,VWS V14.01,2013-07-27 12:10:00,
2013-07-27 07:20:00,58.4,56.4,30.10,NW,315,0.0,0.0,93,0.00,,---,0.19,VWS V14.01,2013-07-27 12:20:00,
2013-07-27 07:30:00,58.4,56.4,30.07,ENE,68,3.0,10.0,93,0.00,,---,0.21,VWS V14.01,2013-07-27 12:30:00,
2013-07-27 07:40:00,58.1,56.4,30.07,ENE,68,5.0,11.0,94,0.00,,---,0.23,VWS V14.01,2013-07-27 12:40:00,
2013-07-27 07:50:00,58.1,56.7,30.08,ENE,68,0.0,0.0,95,0.00,,---,0.23,VWS V14.01,2013-07-27 12:50:00,
2013-07-27 08:00:00,58.0,56.6,30.09,NE,45,0.0,5.0,95,0.00,,---,0.24,VWS V14.01,2013-07-27 13:00:00,
2013-07-27 08:10:00,58.0,56.6,30.09,NNE,22,0.0,6.0,95,0.00,,---,0.24,VWS V14.01,2013-07-27 13:10:00,
2013-07-27 08:20:00,58.0,56.9,30.11,NE,45,0.0,7.0,96,0.00,,---,0.27,VWS V14.01,2013-07-27 13:20:00,
2013-07-27 08:30:00,58.0,56.9,30.12,West,270,0.0,6.0,96,0.00,,---,0.30,VWS V14.01,2013-07-27 13:30:00,
2013-07-27 08:40:00,58.0,56.9,30.12,WNW,292,0.0,2.0,96,0.00,,---,0.36,VWS V14.01,2013-07-27 13:40:00,
2013-07-27 08:50:00,57.8,56.7,30.09,ENE,68,1.0,6.0,96,0.00,,---,0.37,VWS V14.01,2013-07-27 13:50:00,
2013-07-27 09:00:00,57.8,57.0,30.09,NE,45,1.0,6.0,97,0.00,,---,0.40,VWS V14.01,2013-07-27 14:00:00,
2013-07-27 09:10:00,57.8,57.0,30.09,NE,45,0.0,0.0,97,0.00,,---,0.40,VWS V14.01,2013-07-27 14:10:00,
2013-07-27 09:20:00,58.0,57.2,30.11,NE,45,0.0,0.0,97,0.00,,---,0.41,VWS V14.01,2013-07-27 14:20:00,
2013-07-27 09:30:00,58.1,57.5,30.10,NE,45,0.0,0.0,98,0.00,,---,0.42,VWS V14.01,2013-07-27 14:30:00,
2013-07-27 09:40:00,58.3,57.7,30.10,NE,45,2.0,7.0,98,0.00,,---,0.44,VWS V14.01,2013-07-27 14:40:00,
2013-07-27 09:50:00,58.4,57.8,30.09,ENE,68,3.0,6.0,98,0.00,,---,0.44,VWS V14.01,2013-07-27 14:50:00,
2013-07-27 10:00:00,58.6,58.0,30.08,South,180,0.0,4.0,98,0.00,,---,0.44,VWS V14.01,2013-07-27 15:00:00,
2013-07-27 10:10:00,58.9,58.3,30.08,ESE,112,1.0,6.0,98,0.00,,---,0.44,VWS V14.01,2013-07-27 15:10:00,
2013-07-27 10:20:00,58.9,58.3,30.08,ESE,112,1.0,5.0,98,0.00,,---,0.44,VWS V14.01,2013-07-27 15:20:00,
2013-07-27 10:30:00,59.0,58.4,30.11,North,0,0.0,2.0,98,0.00,,---,0.44,VWS V14.01,2013-07-27 15:30:00,
2013-07-27 10:40:00,59.2,58.6,30.11,North,0,0.0,0.0,98,0.00,,---,0.44,VWS V14.01,2013-07-27 15:40:00,
2013-07-27 10:50:00,59.3,58.7,30.10,North,0,0.0,0.0,98,0.00,,---,0.44,VWS V14.01,2013-07-27 15:50:00,
2013-07-27 11:00:00,59.6,59.0,30.11,North,0,0.0,0.0,98,0.00,,---,0.44,VWS V14.01,2013-07-27 16:00:00,
2013-07-27 11:10:00,59.8,59.2,30.11,North,0,0.0,0.0,98,0.00,,---,0.44,VWS V14.01,2013-07-27 16:10:00,
2013-07-27 11:20:00,59.6,59.0,30.10,North,0,0.0,0.0,98,0.00,,---,0.44,VWS V14.01,2013-07-27 16:20:00,
2013-07-27 11:30:00,59.8,59.2,30.10,North,0,0.0,0.0,98,0.00,,---,0.44,VWS V14.01,2013-07-27 16:30:00,
2013-07-27 11:40:00,59.6,59.0,30.10,North,0,0.0,0.0,98,0.00,,---,0.44,VWS V14.01,2013-07-27 16:40:00,
2013-07-27 11:50:00,59.9,59.3,30.10,North,0,0.0,0.0,98,0.00,,---,0.44,VWS V14.01,2013-07-27 16:50:00,
2013-07-27 12:00:00,60.1,59.5,30.09,North,0,0.0,0.0,98,0.00,,---,0.44,VWS V14.01,2013-07-27 17:00:00,
2013-07-27 12:10:00,60.1,59.5,30.09,North,0,0.0,0.0,98,0.00,,---,0.44,VWS V14.01,2013-07-27 17:10:00,
2013-07-27 12:20:00,60.5,59.9,30.10,North,0,0.0,0.0,98,0.00,,---,0.44,VWS V14.01,2013-07-27 17:20:00,
2013-07-27 12:44:00,61.2,60.3,30.09,NW,317,0.0,0.0,97,0.00,,---,0.44,VWS V14.01,2013-07-27 17:44:00,
2013-07-27 12:49:00,61.3,60.4,30.08,NW,317,0.0,0.0,97,0.00,,---,0.44,VWS V14.01,2013-07-27 17:49:00,
2013-07-27 12:50:00,61.8,60.9,30.08,NW,317,0.0,0.0,97,0.00,,---,0.44,VWS V14.01,2013-07-27 17:50:00,
2013-07-27 12:54:00,62.0,60.8,30.08,NW,317,0.0,0.0,96,0.00,,---,0.44,VWS V14.01,2013-07-27 17:54:00,
2013-07-27 12:59:00,62.0,60.8,30.08,NW,317,0.0,0.0,96,0.00,,---,0.44,VWS V14.01,2013-07-27 17:59:00,
2013-07-27 13:00:00,62.0,60.8,30.09,NW,317,0.0,0.0,96,0.00,,---,0.44,VWS V14.01,2013-07-27 18:00:00,
2013-07-27 13:04:00,62.0,60.6,30.09,NW,317,0.0,0.0,95,0.00,,---,0.44,VWS V14.01,2013-07-27 18:04:00,
2013-07-27 13:05:00,62.0,60.6,30.09,NW,317,0.0,0.0,95,0.00,,---,0.44,VWS V14.01,2013-07-27 18:05:00,
2013-07-27 13:09:00,61.6,60.2,30.09,NW,317,0.0,0.0,95,0.00,,---,0.44,VWS V14.01,2013-07-27 18:09:00,
2013-07-27 13:10:00,61.6,60.2,30.09,NW,317,0.0,0.0,95,0.00,,---,0.44,VWS V14.01,2013-07-27 18:10:00,
2013-07-27 13:14:00,61.6,60.2,30.09,NW,317,0.0,0.0,95,0.00,,---,0.44,VWS V14.01,2013-07-27 18:14:00,
2013-07-27 13:15:00,61.6,60.2,30.09,NW,317,0.0,0.0,95,0.00,,---,0.44,VWS V14.01,2013-07-27 18:15:00,
2013-07-27 13:19:00,61.6,60.2,30.09,NW,317,0.0,0.0,95,0.00,,---,0.44,VWS V14.01,2013-07-27 18:19:00,
2013-07-27 13:20:00,61.6,60.2,30.09,NW,317,0.0,0.0,95,0.00,,---,0.44,VWS V14.01,2013-07-27 18:20:00,
2013-07-27 13:25:00,61.8,60.4,30.09,NW,317,0.0,0.0,95,0.00,,---,0.44,VWS V14.01,2013-07-27 18:25:00,
2013-07-27 13:30:00,62.0,60.3,30.09,NW,317,0.0,0.0,94,0.00,,---,0.44,VWS V14.01,2013-07-27 18:30:00,
2013-07-27 13:35:00,62.1,60.4,30.09,NW,317,0.0,0.0,94,0.00,,---,0.44,VWS V14.01,2013-07-27 18:35:00,
2013-07-27 13:40:00,62.0,60.0,30.09,NW,317,0.0,0.0,93,0.00,,---,0.44,VWS V14.01,2013-07-27 18:40:00,
2013-07-27 13:45:00,62.0,59.7,30.09,NW,317,0.0,0.0,92,0.00,,---,0.44,VWS V14.01,2013-07-27 18:45:00,
2013-07-27 13:50:00,62.3,60.2,30.09,NW,317,0.0,0.0,93,0.00,,---,0.44,VWS V14.01,2013-07-27 18:50:00,
2013-07-27 13:51:00,62.3,60.0,30.09,NW,317,0.0,0.0,92,0.00,,---,0.44,VWS V14.01,2013-07-27 18:51:00,
2013-07-27 13:55:00,62.4,59.7,30.09,NW,317,0.0,0.0,91,0.00,,---,0.44,VWS V14.01,2013-07-27 18:55:00,
2013-07-27 13:56:00,62.4,59.7,30.09,NW,317,0.0,0.0,91,0.00,,---,0.44,VWS V14.01,2013-07-27 18:56:00,
2013-07-27 14:00:00,62.6,59.9,30.09,NW,317,0.0,0.0,91,0.00,,---,0.44,VWS V14.01,2013-07-27 19:00:00,
2013-07-27 14:01:00,62.6,59.9,30.08,NW,317,0.0,0.0,91,0.00,,---,0.44,VWS V14.01,2013-07-27 19:01:00,
2013-07-27 14:05:00,62.9,59.9,30.08,NW,317,0.0,0.0,90,0.00,,---,0.44,VWS V14.01,2013-07-27 19:05:00,
2013-07-27 14:06:00,62.9,59.9,30.08,NW,317,0.0,0.0,90,0.00,,---,0.44,VWS V14.01,2013-07-27 19:06:00,
2013-07-27 14:10:00,63.2,59.9,30.08,NW,317,0.0,0.0,89,0.00,,---,0.44,VWS V14.01,2013-07-27 19:10:00,
2013-07-27 14:12:00,63.2,59.9,30.08,NW,317,0.0,0.0,89,0.00,,---,0.44,VWS V14.01,2013-07-27 19:12:00,
2013-07-27 14:15:00,63.5,60.2,30.06,NW,317,0.0,0.0,89,0.00,,---,0.44,VWS V14.01,2013-07-27 19:15:00,
2013-07-27 14:17:00,63.7,60.1,30.06,NW,317,0.0,0.0,88,0.00,,---,0.44,VWS V14.01,2013-07-27 19:17:00,
2013-07-27 14:20:00,64.0,60.4,30.06,NE,49,0.0,6.0,88,0.00,,---,0.44,VWS V14.01,2013-07-27 19:20:00,
2013-07-27 14:21:00,64.0,60.4,30.06,NW,307,0.0,6.0,88,0.00,,---,0.44,VWS V14.01,2013-07-27 19:21:00,
2013-07-27 14:22:00,64.2,60.3,30.06,NW,308,0.0,0.0,87,0.00,,---,0.44,VWS V14.01,2013-07-27 19:22:00,
2013-07-27 14:25:00,64.5,59.9,30.06,NW,306,0.0,2.0,85,0.00,,---,0.44,VWS V14.01,2013-07-27 19:25:00,
2013-07-27 14:26:00,64.5,60.2,30.06,NW,306,0.0,2.0,86,0.00,,---,0.44,VWS V14.01,2013-07-27 19:26:00,
2013-07-27 14:27:00,64.5,59.9,30.06,NW,306,0.0,2.0,85,0.00,,---,0.44,VWS V14.01,2013-07-27 19:27:00,
2013-07-27 14:30:00,64.8,60.2,30.06,NW,306,0.0,2.0,85,0.00,,---,0.44,VWS V14.01,2013-07-27 19:30:00,
2013-07-27 14:31:00,65.0,60.4,30.06,NW,306,0.0,2.0,85,0.00,,---,0.44,VWS V14.01,2013-07-27 19:31:00,
2013-07-27 14:32:00,65.0,60.4,30.06,NW,306,0.0,0.0,85,0.00,,---,0.44,VWS V14.01,2013-07-27 19:32:00,
2013-07-27 14:35:00,65.2,60.2,30.06,NW,306,0.0,0.0,84,0.00,,---,0.44,VWS V14.01,2013-07-27 19:35:00,
2013-07-27 14:36:00,65.2,60.2,30.06,NW,306,0.0,0.0,84,0.00,,---,0.44,VWS V14.01,2013-07-27 19:36:00,
2013-07-27 14:37:00,65.2,59.9,30.06,NW,307,0.0,0.0,83,0.00,,---,0.44,VWS V14.01,2013-07-27 19:37:00,
2013-07-27 14:40:00,65.6,59.6,30.06,NW,307,0.0,0.0,81,0.00,,---,0.44,VWS V14.01,2013-07-27 19:40:00,
2013-07-27 14:41:00,65.6,59.6,30.06,NW,307,0.0,0.0,81,0.00,,---,0.44,VWS V14.01,2013-07-27 19:41:00,
2013-07-27 14:42:00,65.6,59.3,30.06,NW,307,0.0,0.0,80,0.00,,---,0.44,VWS V14.01,2013-07-27 19:42:00,
2013-07-27 14:43:00,65.6,59.3,30.06,NW,307,0.0,0.0,80,0.00,,---,0.44,VWS V14.01,2013-07-27 19:43:00,
2013-07-27 14:45:00,65.6,58.9,30.07,NW,307,0.0,0.0,79,0.00,,---,0.44,VWS V14.01,2013-07-27 19:45:00,
2013-07-27 14:46:00,65.6,58.9,30.07,NW,307,0.0,0.0,79,0.00,,---,0.44,VWS V14.01,2013-07-27 19:46:00,
2013-07-27 14:47:00,65.6,58.9,30.07,NW,307,0.0,0.0,79,0.00,,---,0.44,VWS V14.01,2013-07-27 19:47:00,
2013-07-27 14:48:00,65.6,58.9,30.07,NW,307,0.0,0.0,79,0.00,,---,0.44,VWS V14.01,2013-07-27 19:48:00,
2013-07-27 14:50:00,65.8,59.1,30.07,NW,307,0.0,0.0,79,0.00,,---,0.44,VWS V14.01,2013-07-27 19:50:00,
2013-07-27 14:51:00,65.8,59.1,30.07,NW,307,0.0,0.0,79,0.00,,---,0.44,VWS V14.01,2013-07-27 19:51:00,
2013-07-27 14:52:00,65.6,58.6,30.07,NW,307,0.0,0.0,78,0.00,,---,0.44,VWS V14.01,2013-07-27 19:52:00,
2013-07-27 14:53:00,65.6,58.6,30.07,NW,307,0.0,0.0,78,0.00,,---,0.44,VWS V14.01,2013-07-27 19:53:00,
2013-07-27 14:55:00,66.0,59.3,30.07,NW,308,0.0,0.0,79,0.00,,---,0.44,VWS V14.01,2013-07-27 19:55:00,
2013-07-27 14:56:00,66.0,59.3,30.07,NW,308,0.0,0.0,79,0.00,,---,0.44,VWS V14.01,2013-07-27 19:56:00,
2013-07-27 14:58:00,66.1,58.7,30.07,NW,308,0.0,0.0,77,0.00,,---,0.44,VWS V14.01,2013-07-27 19:58:00,
2013-07-27 15:00:00,66.1,58.3,30.06,NW,309,0.0,0.0,76,0.00,,---,0.44,VWS V14.01,2013-07-27 20:00:00,
2013-07-27 15:01:00,66.1,58.3,30.06,NW,309,0.0,0.0,76,0.00,,---,0.44,VWS V14.01,2013-07-27 20:01:00,
2013-07-27 15:02:00,66.1,58.3,30.06,NW,308,0.0,0.0,76,0.00,,---,0.44,VWS V14.01,2013-07-27 20:02:00,
2013-07-27 15:03:00,66.1,58.3,30.06,NW,308,0.0,0.0,76,0.00,,---,0.44,VWS V14.01,2013-07-27 20:03:00,
2013-07-27 15:05:00,66.0,57.5,30.06,NW,309,0.0,0.0,74,0.00,,---,0.44,VWS V14.01,2013-07-27 20:05:00,
2013-07-27 15:06:00,65.8,56.9,30.06,NW,309,0.0,0.0,73,0.00,,---,0.44,VWS V14.01,2013-07-27 20:06:00,
2013-07-27 15:07:00,65.8,56.9,30.06,NW,308,0.0,0.0,73,0.00,,---,0.44,VWS V14.01,2013-07-27 20:07:00,
2013-07-27 15:08:00,65.8,56.9,30.06,NW,308,0.0,0.0,73,0.00,,---,0.44,VWS V14.01,2013-07-27 20:08:00,
2013-07-27 15:10:00,66.1,57.2,30.06,NW,308,0.0,0.0,73,0.00,,---,0.44,VWS V14.01,2013-07-27 20:10:00,
2013-07-27 15:11:00,66.1,57.2,30.06,NW,309,0.0,0.0,73,0.00,,---,0.44,VWS V14.01,2013-07-27 20:11:00,
2013-07-27 15:12:00,66.1,57.2,30.06,NW,308,0.0,0.0,73,0.00,,---,0.44,VWS V14.01,2013-07-27 20:12:00,
2013-07-27 15:13:00,66.1,57.2,30.06,North,350,4.0,4.0,73,0.00,,---,0.44,VWS V14.01,2013-07-27 20:13:00,
2013-07-27 15:16:00,66.0,56.3,30.06,NE,49,3.0,5.0,71,0.00,,---,0.44,VWS V14.01,2013-07-27 20:16:00,
2013-07-27 15:17:00,66.0,56.3,30.06,NE,49,2.0,5.0,71,0.00,,---,0.44,VWS V14.01,2013-07-27 20:17:00,
2013-07-27 15:18:00,66.1,56.8,30.06,NE,50,5.0,5.0,72,0.00,,---,0.44,VWS V14.01,2013-07-27 20:18:00,
2013-07-27 15:20:00,66.1,56.0,30.06,NE,55,3.0,6.0,70,0.00,,---,0.44,VWS V14.01,2013-07-27 20:20:00,
2013-07-27 15:21:00,66.1,56.0,30.06,NE,55,3.0,6.0,70,0.00,,---,0.44,VWS V14.01,2013-07-27 20:21:00,
2013-07-27 15:22:00,66.1,56.4,30.06,NE,55,5.0,5.0,71,0.00,,---,0.44,VWS V14.01,2013-07-27 20:22:00,
2013-07-27 15:23:00,66.1,56.4,30.06,ENE,57,4.0,7.0,71,0.00,,---,0.44,VWS V14.01,2013-07-27 20:23:00,
2013-07-27 15:26:00,66.4,57.1,30.06,ENE,66,2.0,7.0,72,0.00,,---,0.44,VWS V14.01,2013-07-27 20:26:00,
2013-07-27 15:27:00,66.4,56.7,30.06,ENE,70,0.0,7.0,71,0.00,,---,0.44,VWS V14.01,2013-07-27 20:27:00,
2013-07-27 15:28:00,66.4,56.3,30.06,ENE,70,0.0,7.0,70,0.00,,---,0.44,VWS V14.01,2013-07-27 20:28:00,
2013-07-27 15:30:00,66.4,56.3,30.04,East,91,4.0,7.0,70,0.00,,---,0.44,VWS V14.01,2013-07-27 20:30:00,
2013-07-27 15:31:00,66.4,56.3,30.04,East,91,4.0,7.0,70,0.00,,---,0.44,VWS V14.01,2013-07-27 20:31:00,
2013-07-27 15:32:00,66.4,56.3,30.04,East,87,0.0,5.0,70,0.00,,---,0.44,VWS V14.01,2013-07-27 20:32:00,
2013-07-27 15:33:00,66.4,56.3,30.04,East,87,0.0,5.0,70,0.00,,---,0.44,VWS V14.01,2013-07-27 20:33:00,
2013-07-27 15:36:00,66.6,56.9,30.04,ENE,71,2.0,6.0,71,0.00,,---,0.44,VWS V14.01,2013-07-27 20:36:00,
2013-07-27 15:37:00,66.8,57.1,30.04,ENE,72,3.0,6.0,71,0.00,,---,0.44,VWS V14.01,2013-07-27 20:37:00,
2013-07-27 15:38:00,66.9,57.2,30.04,ENE,75,6.0,6.0,71,0.00,,---,0.44,VWS V14.01,2013-07-27 20:38:00,
2013-07-27 15:40:00,67.1,56.6,30.04,East,90,0.0,7.0,69,0.00,,---,0.44,VWS V14.01,2013-07-27 20:40:00,
2013-07-27 15:41:00,67.1,56.6,30.04,East,90,0.0,0.0,69,0.00,,---,0.44,VWS V14.01,2013-07-27 20:41:00,
2013-07-27 15:42:00,67.1,56.6,30.04,East,92,5.0,6.0,69,0.00,,---,0.44,VWS V14.01,2013-07-27 20:42:00,
2013-07-27 15:43:00,67.1,56.6,30.04,East,92,3.0,6.0,69,0.00,,---,0.44,VWS V14.01,2013-07-27 20:43:00,
2013-07-27 15:44:00,66.9,56.0,30.04,East,92,2.0,6.0,68,0.00,,---,0.44,VWS V14.01,2013-07-27 20:44:00,
2013-07-27 15:46:00,66.9,56.0,30.04,East,92,0.0,6.0,68,0.00,,---,0.44,VWS V14.01,2013-07-27 20:46:00,
2013-07-27 15:47:00,67.1,56.2,30.04,East,92,0.0,6.0,68,0.00,,---,0.44,VWS V14.01,2013-07-27 20:47:00,
2013-07-27 15:48:00,67.1,56.2,30.04,East,92,0.0,6.0,68,0.00,,---,0.44,VWS V14.01,2013-07-27 20:48:00,
2013-07-27 15:49:00,67.3,56.8,30.04,ENE,74,6.0,6.0,69,0.00,,---,0.44,VWS V14.01,2013-07-27 20:49:00,
2013-07-27 15:50:00,67.6,56.3,30.04,East,82,5.0,11.0,67,0.00,,---,0.44,VWS V14.01,2013-07-27 20:50:00,
2013-07-27 15:52:00,67.6,55.4,30.04,ENE,78,9.0,10.0,65,0.00,,---,0.44,VWS V14.01,2013-07-27 20:52:00,
2013-07-27 15:53:00,67.6,55.0,30.04,East,87,6.0,10.0,64,0.00,,---,0.44,VWS V14.01,2013-07-27 20:53:00,
2013-07-27 15:54:00,67.6,55.0,30.04,ENE,73,6.0,10.0,64,0.00,,---,0.44,VWS V14.01,2013-07-27 20:54:00,
2013-07-27 15:57:00,67.8,56.0,30.04,ENE,63,4.0,10.0,66,0.00,,---,0.44,VWS V14.01,2013-07-27 20:57:00,
2013-07-27 15:58:00,67.9,56.1,30.04,ENE,64,4.0,10.0,66,0.00,,---,0.44,VWS V14.01,2013-07-27 20:58:00,
2013-07-27 15:59:00,68.1,56.3,30.04,NE,52,0.0,10.0,66,0.00,,---,0.44,VWS V14.01,2013-07-27 20:59:00,
2013-07-27 16:00:00,68.1,55.9,30.03,NE,43,0.0,10.0,65,0.00,,---,0.44,VWS V14.01,2013-07-27 21:00:00,
2013-07-27 16:02:00,68.1,55.9,30.03,NE,43,0.0,0.0,65,0.00,,---,0.44,VWS V14.01,2013-07-27 21:02:00,
2013-07-27 16:03:00,68.1,55.9,30.03,NE,43,0.0,0.0,65,0.00,,---,0.44,VWS V14.01,2013-07-27 21:03:00,
2013-07-27 16:04:00,68.1,55.9,30.03,ENE,67,6.0,10.0,65,0.00,,---,0.44,VWS V14.01,2013-07-27 21:04:00,
2013-07-27 16:07:00,68.1,56.3,30.03,ENE,60,3.0,10.0,66,0.00,,---,0.44,VWS V14.01,2013-07-27 21:07:00,
2013-07-27 16:08:00,67.9,56.1,30.03,ENE,60,3.0,10.0,66,0.00,,---,0.44,VWS V14.01,2013-07-27 21:08:00,
2013-07-27 16:09:00,67.9,55.7,30.03,ENE,61,5.0,10.0,65,0.00,,---,0.44,VWS V14.01,2013-07-27 21:09:00,
2013-07-27 16:10:00,67.6,55.4,30.03,ENE,61,4.0,10.0,65,0.00,,---,0.44,VWS V14.01,2013-07-27 21:10:00,
2013-07-27 16:12:00,67.6,55.4,30.03,ENE,61,5.0,6.0,65,0.00,,---,0.44,VWS V14.01,2013-07-27 21:12:00,
2013-07-27 16:13:00,67.6,55.8,30.03,ENE,57,3.0,7.0,66,0.00,,---,0.44,VWS V14.01,2013-07-27 21:13:00,
2013-07-27 16:14:00,67.4,54.8,30.03,NE,55,0.0,7.0,64,0.00,,---,0.44,VWS V14.01,2013-07-27 21:14:00,
2013-07-27 16:17:00,67.4,55.7,30.05,NE,55,0.0,7.0,66,0.00,,---,0.44,VWS V14.01,2013-07-27 21:17:00,
2013-07-27 16:18:00,67.4,55.7,30.05,NE,55,1.0,7.0,66,0.00,,---,0.44,VWS V14.01,2013-07-27 21:18:00,
2013-07-27 16:19:00,67.4,56.1,30.05,NNW,342,0.0,7.0,67,0.00,,---,0.44,VWS V14.01,2013-07-27 21:19:00,
2013-07-27 16:20:00,67.4,56.1,30.05,NNW,342,0.0,7.0,67,0.01,,---,0.45,VWS V14.01,2013-07-27 21:20:00,
2013-07-27 16:22:00,67.4,56.5,30.05,NNW,342,0.0,0.0,68,0.03,,---,0.47,VWS V14.01,2013-07-27 21:22:00,
2013-07-27 16:23:00,67.4,56.5,30.05,NNW,342,0.0,0.0,68,0.03,,---,0.47,VWS V14.01,2013-07-27 21:23:00,
2013-07-27 16:24:00,67.4,57.3,30.05,NNW,342,0.0,0.0,70,0.04,,---,0.48,VWS V14.01,2013-07-27 21:24:00,
2013-07-27 16:27:00,67.1,57.8,30.05,NNW,342,0.0,0.0,72,0.04,,---,0.48,VWS V14.01,2013-07-27 21:27:00,
2013-07-27 16:28:00,66.9,58.0,30.05,NNW,342,0.0,0.0,73,0.04,,---,0.48,VWS V14.01,2013-07-27 21:28:00,
2013-07-27 16:29:00,66.8,57.9,30.05,NNW,342,0.0,0.0,73,0.04,,---,0.48,VWS V14.01,2013-07-27 21:29:00,
2013-07-27 16:30:00,66.6,57.7,30.04,NNW,342,0.0,0.0,73,0.04,,---,0.48,VWS V14.01,2013-07-27 21:30:00,
2013-07-27 16:32:00,66.4,57.5,30.04,NNW,342,0.0,0.0,73,0.04,,---,0.48,VWS V14.01,2013-07-27 21:32:00,
2013-07-27 16:33:00,66.4,57.5,30.04,NNW,342,0.0,0.0,73,0.04,,---,0.48,VWS V14.01,2013-07-27 21:33:00,
2013-07-27 16:34:00,66.4,57.9,30.04,NNW,342,0.0,0.0,74,0.04,,---,0.48,VWS V14.01,2013-07-27 21:34:00,
2013-07-27 16:38:00,66.1,57.6,30.04,NNW,342,0.0,0.0,74,0.04,,---,0.48,VWS V14.01,2013-07-27 21:38:00,
2013-07-27 16:39:00,66.0,57.9,30.04,NNW,342,0.0,0.0,75,0.04,,---,0.48,VWS V14.01,2013-07-27 21:39:00,
2013-07-27 16:40:00,66.0,58.2,30.04,NNW,342,0.0,0.0,76,0.04,,---,0.48,VWS V14.01,2013-07-27 21:40:00,
2013-07-27 16:43:00,65.8,58.0,30.04,NNW,342,0.0,0.0,76,0.04,,---,0.48,VWS V14.01,2013-07-27 21:43:00,
2013-07-27 16:44:00,65.6,57.8,30.04,NNW,342,0.0,0.0,76,0.04,,---,0.48,VWS V14.01,2013-07-27 21:44:00,
2013-07-27 16:48:00,65.3,57.5,30.05,NNW,342,0.0,0.0,76,0.04,,---,0.48,VWS V14.01,2013-07-27 21:48:00,
2013-07-27 16:49:00,65.3,57.2,30.05,NNW,342,0.0,0.0,75,0.04,,---,0.48,VWS V14.01,2013-07-27 21:49:00,
2013-07-27 16:50:00,65.5,58.1,30.05,NNW,342,0.0,0.0,77,0.04,,---,0.48,VWS V14.01,2013-07-27 21:50:00,
2013-07-27 16:53:00,65.5,58.5,30.05,NNW,342,0.0,0.0,78,0.04,,---,0.48,VWS V14.01,2013-07-27 21:53:00,
2013-07-27 16:54:00,65.6,58.6,30.05,NNW,342,0.0,0.0,78,0.04,,---,0.48,VWS V14.01,2013-07-27 21:54:00,
2013-07-27 16:55:00,65.5,58.1,30.05,NNE,29,3.0,3.0,77,0.04,,---,0.48,VWS V14.01,2013-07-27 21:55:00,
2013-07-27 16:58:00,65.3,57.2,30.05,East,92,4.0,6.0,75,0.04,,---,0.48,VWS V14.01,2013-07-27 21:58:00,
2013-07-27 16:59:00,65.3,57.2,30.05,East,93,4.0,6.0,75,0.04,,---,0.48,VWS V14.01,2013-07-27 21:59:00,
2013-07-27 17:00:00,65.3,57.2,30.05,East,94,4.0,6.0,75,0.04,,---,0.48,VWS V14.01,2013-07-27 22:00:00,
2013-07-27 17:03:00,65.3,57.2,30.03,East,94,0.0,3.0,75,0.04,,---,0.48,VWS V14.01,2013-07-27 22:03:00,
2013-07-27 17:04:00,65.3,57.2,30.03,East,94,0.0,3.0,75,0.04,,---,0.48,VWS V14.01,2013-07-27 22:04:00,
2013-07-27 17:05:00,65.3,57.2,30.03,East,94,0.0,3.0,75,0.04,,---,0.48,VWS V14.01,2013-07-27 22:05:00,
2013-07-27 17:08:00,65.3,56.8,30.03,East,94,0.0,3.0,74,0.04,,---,0.48,VWS V14.01,2013-07-27 22:08:00,
2013-07-27 17:09:00,65.3,56.8,30.03,East,94,0.0,3.0,74,0.04,,---,0.48,VWS V14.01,2013-07-27 22:09:00,
2013-07-27 17:10:00,65.3,57.2,30.03,East,94,0.0,3.0,75,0.04,,---,0.48,VWS V14.01,2013-07-27 22:10:00,
2013-07-27 17:13:00,65.5,57.7,30.03,East,94,0.0,0.0,76,0.04,,---,0.48,VWS V14.01,2013-07-27 22:13:00,
2013-07-27 17:14:00,65.5,57.7,30.03,East,94,0.0,0.0,76,0.04,,---,0.48,VWS V14.01,2013-07-27 22:14:00,
2013-07-27 17:15:00,65.5,57.7,30.03,East,94,0.0,0.0,76,0.04,,---,0.48,VWS V14.01,2013-07-27 22:15:00,
2013-07-27 17:18:00,65.6,58.2,30.04,East,94,0.0,0.0,77,0.04,,---,0.48,VWS V14.01,2013-07-27 22:18:00,
2013-07-27 17:19:00,65.6,58.2,30.04,East,94,0.0,0.0,77,0.04,,---,0.48,VWS V14.01,2013-07-27 22:19:00,
2013-07-27 17:20:00,65.5,58.1,30.04,East,94,0.0,0.0,77,0.04,,---,0.48,VWS V14.01,2013-07-27 22:20:00,
2013-07-27 17:23:00,65.3,57.2,30.04,East,94,0.0,0.0,75,0.03,,---,0.48,VWS V14.01,2013-07-27 22:23:00,
2013-07-27 17:24:00,65.3,56.4,30.04,East,94,0.0,0.0,73,0.03,,---,0.48,VWS V14.01,2013-07-27 22:24:00,
2013-07-27 17:25:00,65.5,56.6,30.04,East,94,0.0,0.0,73,0.03,,---,0.48,VWS V14.01,2013-07-27 22:25:00,
2013-07-27 17:28:00,65.6,56.7,30.04,East,94,0.0,0.0,73,0.03,,---,0.48,VWS V14.01,2013-07-27 22:28:00,
2013-07-27 17:29:00,65.5,55.9,30.04,East,94,0.0,0.0,71,0.03,,---,0.48,VWS V14.01,2013-07-27 22:29:00,
2013-07-27 17:30:00,65.6,56.0,30.02,East,94,0.0,0.0,71,0.03,,---,0.48,VWS V14.01,2013-07-27 22:30:00,
2013-07-27 17:33:00,65.6,55.6,30.02,East,94,0.0,0.0,70,0.00,,---,0.48,VWS V14.01,2013-07-27 22:33:00,
2013-07-27 17:34:00,65.8,56.2,30.02,East,94,0.0,0.0,71,0.00,,---,0.48,VWS V14.01,2013-07-27 22:34:00,
2013-07-27 17:35:00,66.0,56.7,30.02,East,94,3.0,3.0,72,0.00,,---,0.48,VWS V14.01,2013-07-27 22:35:00,
2013-07-27 17:38:00,66.1,56.8,30.02,East,94,3.0,4.0,72,0.00,,---,0.48,VWS V14.01,2013-07-27 22:38:00,
2013-07-27 17:39:00,66.1,56.8,30.02,East,94,2.0,4.0,72,0.00,,---,0.48,VWS V14.01,2013-07-27 22:39:00,
2013-07-27 17:40:00,66.3,57.4,30.02,East,94,0.0,4.0,73,0.00,,---,0.48,VWS V14.01,2013-07-27 22:40:00,
2013-07-27 17:43:00,66.4,56.7,30.02,East,94,3.0,5.0,71,0.00,,---,0.48,VWS V14.01,2013-07-27 22:43:00,
2013-07-27 17:44:00,66.6,57.3,30.02,East,94,3.0,5.0,72,0.00,,---,0.48,VWS V14.01,2013-07-27 22:44:00,
2013-07-27 17:46:00,66.8,57.5,29.99,East,100,5.0,6.0,72,0.00,,---,0.48,VWS V14.01,2013-07-27 22:46:00,
2013-07-27 17:48:00,66.8,57.5,29.99,East,101,5.0,6.0,72,0.00,,---,0.48,VWS V14.01,2013-07-27 22:48:00,
2013-07-27 17:49:00,66.8,56.7,29.99,ESE,109,6.0,7.0,70,0.00,,---,0.48,VWS V14.01,2013-07-27 22:49:00,
2013-07-27 17:50:00,66.6,56.5,29.99,ESE,109,7.0,7.0,70,0.00,,---,0.48,VWS V14.01,2013-07-27 22:50:00,
2013-07-27 17:51:00,66.6,56.5,29.99,ESE,109,4.0,7.0,70,0.00,,---,0.48,VWS V14.01,2013-07-27 22:51:00,
2013-07-27 17:53:00,66.6,56.1,29.99,ESE,109,0.0,3.0,69,0.00,,---,0.48,VWS V14.01,2013-07-27 22:53:00,
2013-07-27 17:54:00,66.6,56.1,29.99,ESE,109,0.0,3.0,69,0.00,,---,0.48,VWS V14.01,2013-07-27 22:54:00,
2013-07-27 17:55:00,66.6,56.1,29.99,ESE,109,0.0,3.0,69,0.00,,---,0.48,VWS V14.01,2013-07-27 22:55:00,
2013-07-27 17:56:00,66.8,56.3,29.99,ESE,109,0.0,3.0,69,0.00,,---,0.48,VWS V14.01,2013-07-27 22:56:00,
2013-07-27 17:58:00,66.8,56.7,29.99,ESE,109,0.0,3.0,70,0.00,,---,0.48,VWS V14.01,2013-07-27 22:58:00,
2013-07-27 17:59:00,66.8,56.3,29.99,ESE,109,0.0,3.0,69,0.00,,---,0.48,VWS V14.01,2013-07-27 22:59:00,
2013-07-27 18:00:00,66.9,56.4,30.00,ESE,109,0.0,3.0,69,0.00,,---,0.48,VWS V14.01,2013-07-27 23:00:00,
2013-07-27 18:02:00,67.1,57.8,30.00,ESE,109,0.0,0.0,72,0.00,,---,0.48,VWS V14.01,2013-07-27 23:02:00,
2013-07-27 18:03:00,67.4,58.5,30.00,ESE,109,0.0,0.0,73,0.00,,---,0.48,VWS V14.01,2013-07-27 23:03:00,
2013-07-27 18:04:00,67.4,58.5,30.00,ESE,110,0.0,0.0,73,0.00,,---,0.48,VWS V14.01,2013-07-27 23:04:00,
2013-07-27 18:05:00,67.4,58.1,30.00,ESE,110,0.0,0.0,72,0.00,,---,0.48,VWS V14.01,2013-07-27 23:05:00,
2013-07-27 18:07:00,67.6,58.7,30.00,ESE,110,0.0,0.0,73,0.00,,---,0.48,VWS V14.01,2013-07-27 23:07:00,
2013-07-27 18:08:00,67.6,57.9,30.00,ESE,110,0.0,0.0,71,0.00,,---,0.48,VWS V14.01,2013-07-27 23:08:00,
2013-07-27 18:09:00,67.8,58.5,30.00,ESE,110,0.0,0.0,72,0.00,,---,0.48,VWS V14.01,2013-07-27 23:09:00,
2013-07-27 18:10:00,67.8,58.5,30.00,ESE,110,0.0,0.0,72,0.00,,---,0.48,VWS V14.01,2013-07-27 23:10:00,
2013-07-27 18:12:00,67.8,58.1,30.00,ESE,110,0.0,0.0,71,0.00,,---,0.48,VWS V14.01,2013-07-27 23:12:00,
2013-07-27 18:14:00,67.8,58.5,30.00,ESE,110,0.0,0.0,72,0.00,,---,0.48,VWS V14.01,2013-07-27 23:14:00,
2013-07-27 18:15:00,67.6,58.3,30.00,ESE,110,0.0,0.0,72,0.00,,---,0.48,VWS V14.01,2013-07-27 23:15:00,
2013-07-27 18:17:00,67.3,58.0,30.01,ESE,110,0.0,0.0,72,0.00,,---,0.48,VWS V14.01,2013-07-27 23:17:00,
2013-07-27 18:19:00,66.9,58.0,30.01,ESE,110,0.0,0.0,73,0.00,,---,0.48,VWS V14.01,2013-07-27 23:19:00,
2013-07-27 18:20:00,66.9,58.0,30.01,ESE,110,0.0,0.0,73,0.00,,---,0.48,VWS V14.01,2013-07-27 23:20:00,
2013-07-27 18:22:00,66.6,57.7,30.01,ESE,110,0.0,0.0,73,0.00,,---,0.48,VWS V14.01,2013-07-27 23:22:00,
2013-07-27 18:24:00,66.4,57.9,30.01,ESE,110,0.0,0.0,74,0.00,,---,0.48,VWS V14.01,2013-07-27 23:24:00,
2013-07-27 18:25:00,66.4,58.2,30.01,ESE,110,0.0,0.0,75,0.00,,---,0.48,VWS V14.01,2013-07-27 23:25:00,
2013-07-27 18:27:00,66.3,58.2,30.01,ESE,110,0.0,0.0,75,0.00,,---,0.48,VWS V14.01,2013-07-27 23:27:00,
2013-07-27 18:29:00,66.1,58.0,30.01,ESE,110,0.0,0.0,75,0.00,,---,0.48,VWS V14.01,2013-07-27 23:29:00,
2013-07-27 18:30:00,66.1,58.0,30.01,ESE,110,0.0,0.0,75,0.00,,---,0.48,VWS V14.01,2013-07-27 23:30:00,
2013-07-27 18:32:00,66.0,57.9,30.01,ESE,110,0.0,0.0,75,0.00,,---,0.48,VWS V14.01,2013-07-27 23:32:00,
2013-07-27 18:34:00,66.0,58.2,30.01,ESE,110,0.0,0.0,76,0.00,,---,0.48,VWS V14.01,2013-07-27 23:34:00,
2013-07-27 18:35:00,66.0,58.2,30.01,ESE,110,0.0,0.0,76,0.00,,---,0.48,VWS V14.01,2013-07-27 23:35:00,
2013-07-27 18:36:00,66.0,58.2,30.01,ESE,110,0.0,0.0,76,0.00,,---,0.48,VWS V14.01,2013-07-27 23:36:00,
2013-07-27 18:37:00,66.0,58.2,30.01,ESE,110,0.0,0.0,76,0.00,,---,0.48,VWS V14.01,2013-07-27 23:37:00,
2013-07-27 18:39:00,65.8,58.0,30.01,ESE,110,0.0,0.0,76,0.00,,---,0.48,VWS V14.01,2013-07-27 23:39:00,
2013-07-27 18:40:00,65.8,58.0,30.01,ESE,110,0.0,0.0,76,0.00,,---,0.48,VWS V14.01,2013-07-27 23:40:00,
2013-07-27 18:41:00,65.8,58.4,30.01,ESE,110,0.0,0.0,77,0.00,,---,0.48,VWS V14.01,2013-07-27 23:41:00,
2013-07-27 18:43:00,65.8,58.0,30.01,ESE,110,0.0,0.0,76,0.00,,---,0.48,VWS V14.01,2013-07-27 23:43:00,
2013-07-27 18:44:00,65.8,58.0,30.01,ESE,110,0.0,0.0,76,0.00,,---,0.48,VWS V14.01,2013-07-27 23:44:00,
2013-07-27 18:45:00,65.8,58.0,30.01,ESE,110,0.0,0.0,76,0.00,,---,0.48,VWS V14.01,2013-07-27 23:45:00,
2013-07-27 18:46:00,65.8,58.0,30.01,ESE,110,0.0,0.0,76,0.00,,---,0.48,VWS V14.01,2013-07-27 23:46:00,
2013-07-27 18:48:00,65.6,57.8,30.01,ESE,110,0.0,0.0,76,0.00,,---,0.48,VWS V14.01,2013-07-27 23:48:00,
2013-07-27 18:49:00,65.6,57.8,30.01,ESE,110,0.0,0.0,76,0.00,,---,0.48,VWS V14.01,2013-07-27 23:49:00,
2013-07-27 18:50:00,65.6,57.8,30.01,ESE,110,0.0,0.0,76,0.00,,---,0.48,VWS V14.01,2013-07-27 23:50:00,
2013-07-27 18:52:00,65.6,58.6,30.01,ESE,119,0.0,0.0,78,0.00,,---,0.48,VWS V14.01,2013-07-27 23:52:00,
2013-07-27 18:53:00,65.6,58.6,30.01,ESE,119,0.0,0.0,78,0.00,,---,0.48,VWS V14.01,2013-07-27 23:53:00,
2013-07-27 18:54:00,65.6,58.9,30.01,ESE,119,0.0,0.0,79,0.00,,---,0.48,VWS V14.01,2013-07-27 23:54:00,
2013-07-27 18:55:00,65.6,58.9,30.01,ESE,119,0.0,0.0,79,0.00,,---,0.48,VWS V14.01,2013-07-27 23:55:00,
2013-07-27 18:57:00,65.5,58.8,30.01,ESE,119,0.0,0.0,79,0.00,,---,0.48,VWS V14.01,2013-07-27 23:57:00,
2013-07-27 18:58:00,65.5,58.8,30.01,ESE,119,0.0,0.0,79,0.00,,---,0.48,VWS V14.01,2013-07-27 23:58:00,
2013-07-27 18:59:00,65.3,58.6,30.01,ESE,119,0.0,0.0,79,0.00,,---,0.48,VWS V14.01,2013-07-27 23:59:00,
2013-07-27 19:00:00,65.2,58.5,30.01,ESE,119,0.0,0.0,79,0.00,,---,0.48,VWS V14.01,2013-07-28 00:00:00,
2013-07-27 19:01:00,65.2,58.5,30.01,ESE,119,0.0,0.0,79,0.00,,---,0.48,VWS V14.01,2013-07-28 00:01:00,
2013-07-27 19:02:00,65.2,58.5,30.01,ESE,119,0.0,0.0,79,0.00,,---,0.48,VWS V14.01,2013-07-28 00:02:00,
2013-07-27 19:03:00,65.2,58.5,30.01,ESE,119,0.0,0.0,79,0.00,,---,0.48,VWS V14.01,2013-07-28 00:03:00,
2013-07-27 19:04:00,65.2,58.9,30.01,ESE,119,0.0,0.0,80,0.00,,---,0.48,VWS V14.01,2013-07-28 00:04:00,
2013-07-27 19:05:00,65.2,58.9,30.01,ESE,119,0.0,0.0,80,0.00,,---,0.48,VWS V14.01,2013-07-28 00:05:00,
2013-07-27 19:06:00,65.2,58.9,30.01,ESE,119,0.0,0.0,80,0.00,,---,0.48,VWS V14.01,2013-07-28 00:06:00,
2013-07-27 19:07:00,65.0,58.7,30.01,ESE,119,0.0,0.0,80,0.00,,---,0.48,VWS V14.01,2013-07-28 00:07:00,
2013-07-27 19:08:00,65.0,58.3,30.01,ESE,119,0.0,0.0,79,0.00,,---,0.48,VWS V14.01,2013-07-28 00:08:00,
2013-07-27 19:10:00,64.8,58.1,30.01,ESE,119,0.0,0.0,79,0.00,,---,0.48,VWS V14.01,2013-07-28 00:10:00,
2013-07-27 19:11:00,64.8,58.1,30.01,ESE,119,0.0,0.0,79,0.00,,---,0.48,VWS V14.01,2013-07-28 00:11:00,
2013-07-27 19:12:00,64.7,58.0,30.01,ESE,119,0.0,0.0,79,0.00,,---,0.48,VWS V14.01,2013-07-28 00:12:00,
2013-07-27 19:13:00,64.7,58.4,30.01,ESE,119,0.0,0.0,80,0.00,,---,0.48,VWS V14.01,2013-07-28 00:13:00,
2013-07-27 19:15:00,64.7,58.0,30.01,ESE,119,0.0,0.0,79,0.00,,---,0.48,VWS V14.01,2013-07-28 00:15:00,
2013-07-27 19:16:00,64.7,58.0,30.01,ESE,119,0.0,0.0,79,0.00,,---,0.48,VWS V14.01,2013-07-28 00:16:00,
2013-07-27 19:17:00,64.5,57.8,30.01,ESE,119,0.0,0.0,79,0.00,,---,0.48,VWS V14.01,2013-07-28 00:17:00,
2013-07-27 19:18:00,64.5,57.5,30.01,ESE,119,0.0,0.0,78,0.00,,---,0.48,VWS V14.01,2013-07-28 00:18:00,
2013-07-27 19:20:00,64.5,57.8,30.01,ESE,119,0.0,0.0,79,0.00,,---,0.48,VWS V14.01,2013-07-28 00:20:00,
2013-07-27 19:21:00,64.5,57.8,30.01,ESE,119,0.0,0.0,79,0.00,,---,0.48,VWS V14.01,2013-07-28 00:21:00,
2013-07-27 19:22:00,64.5,58.2,30.01,ESE,119,0.0,0.0,80,0.00,,---,0.48,VWS V14.01,2013-07-28 00:22:00,
2013-07-27 19:23:00,64.5,57.8,30.01,ESE,119,0.0,0.0,79,0.00,,---,0.48,VWS V14.01,2013-07-28 00:23:00,
2013-07-27 19:25:00,64.5,57.8,30.01,ESE,119,0.0,0.0,79,0.00,,---,0.48,VWS V14.01,2013-07-28 00:25:00,
2013-07-27 19:26:00,64.5,58.2,30.01,ESE,119,0.0,0.0,80,0.00,,---,0.48,VWS V14.01,2013-07-28 00:26:00,
2013-07-27 19:27:00,64.5,58.2,30.01,ESE,119,0.0,0.0,80,0.00,,---,0.48,VWS V14.01,2013-07-28 00:27:00,
2013-07-27 19:28:00,64.5,58.2,30.01,ESE,119,0.0,0.0,80,0.00,,---,0.48,VWS V14.01,2013-07-28 00:28:00,
2013-07-27 19:30:00,64.3,58.0,30.01,ESE,119,0.0,0.0,80,0.00,,---,0.48,VWS V14.01,2013-07-28 00:30:00,
2013-07-27 19:31:00,64.3,58.0,30.01,ESE,119,0.0,0.0,80,0.00,,---,0.48,VWS V14.01,2013-07-28 00:31:00,
2013-07-27 19:32:00,64.2,57.9,30.01,ESE,119,0.0,0.0,80,0.00,,---,0.48,VWS V14.01,2013-07-28 00:32:00,
2013-07-27 19:33:00,64.2,57.9,30.01,ESE,119,0.0,0.0,80,0.00,,---,0.48,VWS V14.01,2013-07-28 00:33:00,
2013-07-27 19:35:00,64.2,57.9,30.01,ESE,119,0.0,0.0,80,0.00,,---,0.48,VWS V14.01,2013-07-28 00:35:00,
2013-07-27 19:36:00,64.2,57.9,30.01,ESE,119,0.0,0.0,80,0.00,,---,0.48,VWS V14.01,2013-07-28 00:36:00,
2013-07-27 19:38:00,64.2,57.9,30.01,ESE,119,0.0,0.0,80,0.00,,---,0.48,VWS V14.01,2013-07-28 00:38:00,
2013-07-27 19:40:00,64.0,57.7,30.01,ESE,119,0.0,0.0,80,0.00,,---,0.48,VWS V14.01,2013-07-28 00:40:00,
2013-07-27 19:41:00,64.0,57.7,30.01,ESE,119,0.0,0.0,80,0.00,,---,0.48,VWS V14.01,2013-07-28 00:41:00,
2013-07-27 19:43:00,64.0,57.4,30.01,ESE,119,0.0,0.0,79,0.00,,---,0.48,VWS V14.01,2013-07-28 00:43:00,
2013-07-27 19:45:00,64.0,57.0,29.99,ESE,119,0.0,0.0,78,0.00,,---,0.48,VWS V14.01,2013-07-28 00:45:00,
2013-07-27 19:46:00,64.0,57.0,29.99,ESE,119,0.0,0.0,78,0.00,,---,0.48,VWS V14.01,2013-07-28 00:46:00,
2013-07-27 19:48:00,64.2,56.8,29.99,ESE,120,5.0,6.0,77,0.00,,---,0.48,VWS V14.01,2013-07-28 00:48:00,
2013-07-27 19:50:00,64.2,56.8,29.99,ESE,120,4.0,6.0,77,0.00,,---,0.48,VWS V14.01,2013-07-28 00:50:00,
2013-07-27 19:51:00,64.2,56.8,29.99,ESE,120,5.0,6.0,77,0.00,,---,0.48,VWS V14.01,2013-07-28 00:51:00,
2013-07-27 19:53:00,64.2,56.1,29.99,ESE,120,0.0,3.0,75,0.00,,---,0.48,VWS V14.01,2013-07-28 00:53:00,
2013-07-27 19:54:00,64.2,56.1,29.99,ESE,120,0.0,3.0,75,0.00,,---,0.48,VWS V14.01,2013-07-28 00:54:00,
2013-07-27 19:55:00,64.2,55.8,29.99,ESE,120,0.0,3.0,74,0.00,,---,0.48,VWS V14.01,2013-07-28 00:55:00,
2013-07-27 19:56:00,64.2,55.8,29.99,ESE,120,0.0,3.0,74,0.00,,---,0.48,VWS V14.01,2013-07-28 00:56:00,
2013-07-27 19:58:00,64.2,55.4,29.99,ESE,120,0.0,3.0,73,0.00,,---,0.48,VWS V14.01,2013-07-28 00:58:00,
2013-07-27 19:59:00,64.2,55.4,29.99,ESE,120,0.0,3.0,73,0.00,,---,0.48,VWS V14.01,2013-07-28 00:59:00,
2013-07-27 20:00:00,64.2,55.4,29.99,ESE,120,0.0,3.0,73,0.00,,---,0.48,VWS V14.01,2013-07-28 01:00:00,
2013-07-27 20:01:00,64.2,55.4,29.99,ESE,120,0.0,3.0,73,0.00,,---,0.48,VWS V14.01,2013-07-28 01:01:00,
2013-07-27 20:03:00,64.2,55.4,29.99,ESE,120,0.0,0.0,73,0.00,,---,0.48,VWS V14.01,2013-07-28 01:03:00,
2013-07-27 20:04:00,64.2,55.4,29.99,ESE,120,0.0,0.0,73,0.00,,---,0.48,VWS V14.01,2013-07-28 01:04:00,
2013-07-27 20:05:00,64.2,55.4,29.99,ESE,120,0.0,0.0,73,0.00,,---,0.48,VWS V14.01,2013-07-28 01:05:00,
2013-07-27 20:06:00,64.2,55.4,29.99,ESE,120,0.0,0.0,73,0.00,,---,0.48,VWS V14.01,2013-07-28 01:06:00,
2013-07-27 20:08:00,64.2,55.4,29.99,ESE,120,0.0,0.0,73,0.00,,---,0.48,VWS V14.01,2013-07-28 01:08:00,
2013-07-27 20:09:00,64.2,55.4,29.99,ESE,120,0.0,0.0,73,0.00,,---,0.48,VWS V14.01,2013-07-28 01:09:00,
2013-07-27 20:10:00,64.2,55.4,29.99,ESE,120,0.0,0.0,73,0.00,,---,0.48,VWS V14.01,2013-07-28 01:10:00,
2013-07-27 20:11:00,64.2,55.4,29.99,ESE,120,0.0,0.0,73,0.00,,---,0.48,VWS V14.01,2013-07-28 01:11:00,
2013-07-27 20:13:00,64.3,55.5,29.99,ESE,120,0.0,0.0,73,0.00,,---,0.48,VWS V14.01,2013-07-28 01:13:00,
2013-07-27 20:14:00,64.3,55.5,29.99,ESE,120,0.0,0.0,73,0.00,,---,0.48,VWS V14.01,2013-07-28 01:14:00,
2013-07-27 20:15:00,64.3,55.8,29.99,ESE,120,0.0,0.0,74,0.00,,---,0.48,VWS V14.01,2013-07-28 01:15:00,
2013-07-27 20:17:00,64.3,55.5,29.99,ESE,120,0.0,0.0,73,0.00,,---,0.48,VWS V14.01,2013-07-28 01:17:00,
2013-07-27 20:19:00,64.3,55.8,29.99,ESE,120,0.0,0.0,74,0.00,,---,0.48,VWS V14.01,2013-07-28 01:19:00,
2013-07-27 20:20:00,64.3,56.2,29.99,ESE,120,0.0,0.0,75,0.00,,---,0.48,VWS V14.01,2013-07-28 01:20:00,
2013-07-27 20:21:00,64.3,56.2,29.99,ESE,120,0.0,0.0,75,0.00,,---,0.48,VWS V14.01,2013-07-28 01:21:00,
2013-07-27 20:22:00,64.3,56.2,29.99,ESE,120,0.0,0.0,75,0.00,,---,0.48,VWS V14.01,2013-07-28 01:22:00,
2013-07-27 20:24:00,64.3,56.6,29.99,ESE,120,0.0,0.0,76,0.00,,---,0.48,VWS V14.01,2013-07-28 01:24:00,
2013-07-27 20:26:00,64.2,56.5,29.99,ESE,120,0.0,0.0,76,0.00,,---,0.48,VWS V14.01,2013-07-28 01:26:00,
2013-07-27 20:27:00,64.2,56.5,29.99,ESE,120,0.0,0.0,76,0.00,,---,0.48,VWS V14.01,2013-07-28 01:27:00,
2013-07-27 20:29:00,64.2,56.5,29.99,ESE,120,0.0,0.0,76,0.00,,---,0.48,VWS V14.01,2013-07-28 01:29:00,
2013-07-27 20:30:00,64.2,56.8,29.99,ESE,120,0.0,0.0,77,0.00,,---,0.48,VWS V14.01,2013-07-28 01:30:00,
2013-07-27 20:31:00,64.2,56.8,29.99,ESE,120,0.0,0.0,77,0.00,,---,0.48,VWS V14.01,2013-07-28 01:31:00,
2013-07-27 20:32:00,64.2,56.8,29.99,ESE,120,0.0,0.0,77,0.00,,---,0.48,VWS V14.01,2013-07-28 01:32:00,
2013-07-27 20:34:00,64.0,56.7,29.99,ESE,120,0.0,0.0,77,0.00,,---,0.48,VWS V14.01,2013-07-28 01:34:00,
2013-07-27 20:36:00,64.0,56.7,29.99,ESE,120,0.0,0.0,77,0.00,,---,0.48,VWS V14.01,2013-07-28 01:36:00,
2013-07-27 20:37:00,63.9,56.6,29.99,ESE,120,0.0,0.0,77,0.00,,---,0.48,VWS V14.01,2013-07-28 01:37:00,
2013-07-27 20:39:00,63.9,56.6,29.99,ESE,120,0.0,0.0,77,0.00,,---,0.48,VWS V14.01,2013-07-28 01:39:00,
2013-07-27 20:40:00,63.9,56.6,29.99,ESE,120,0.0,0.0,77,0.00,,---,0.48,VWS V14.01,2013-07-28 01:40:00,
2013-07-27 20:42:00,63.9,56.9,29.99,ESE,120,0.0,0.0,78,0.00,,---,0.48,VWS V14.01,2013-07-28 01:42:00,
2013-07-27 20:44:00,63.9,56.9,29.99,ESE,120,0.0,0.0,78,0.00,,---,0.48,VWS V14.01,2013-07-28 01:44:00,
2013-07-27 20:47:00,63.7,56.7,29.99,ESE,120,0.0,0.0,78,0.00,,---,0.48,VWS V14.01,2013-07-28 01:47:00,
2013-07-27 20:49:00,63.5,56.2,29.99,ESE,120,0.0,0.0,77,0.00,,---,0.48,VWS V14.01,2013-07-28 01:49:00,
2013-07-27 20:50:00,63.5,56.2,29.99,ESE,120,0.0,0.0,77,0.00,,---,0.48,VWS V14.01,2013-07-28 01:50:00,
2013-07-27 20:52:00,63.5,56.2,29.99,ESE,120,0.0,0.0,77,0.00,,---,0.48,VWS V14.01,2013-07-28 01:52:00,
2013-07-27 20:53:00,63.5,56.2,29.99,ESE,120,0.0,0.0,77,0.00,,---,0.48,VWS V14.01,2013-07-28 01:53:00,
2013-07-27 20:54:00,63.5,56.2,29.99,ESE,120,0.0,0.0,77,0.00,,---,0.48,VWS V14.01,2013-07-28 01:54:00,
2013-07-27 20:57:00,63.5,55.8,29.99,ESE,120,0.0,0.0,76,0.00,,---,0.48,VWS V14.01,2013-07-28 01:57:00,
2013-07-27 20:58:00,63.5,55.8,29.99,ESE,120,0.0,0.0,76,0.00,,---,0.48,VWS V14.01,2013-07-28 01:58:00,
2013-07-27 20:59:00,63.5,56.2,29.99,ESE,120,0.0,0.0,77,0.00,,---,0.48,VWS V14.01,2013-07-28 01:59:00,
2013-07-27 21:00:00,63.5,56.2,29.99,ESE,120,0.0,0.0,77,0.00,,---,0.48,VWS V14.01,2013-07-28 02:00:00,
2013-07-27 21:02:00,63.5,56.2,29.99,ESE,120,0.0,0.0,77,0.00,,---,0.48,VWS V14.01,2013-07-28 02:02:00,
2013-07-27 21:03:00,63.5,56.2,29.99,ESE,120,0.0,0.0,77,0.00,,---,0.48,VWS V14.01,2013-07-28 02:03:00,
2013-07-27 21:05:00,63.5,56.2,29.99,ESE,120,0.0,0.0,77,0.00,,---,0.48,VWS V14.01,2013-07-28 02:05:00,
2013-07-27 21:08:00,63.5,55.8,29.99,ESE,120,0.0,0.0,76,0.00,,---,0.48,VWS V14.01,2013-07-28 02:08:00,
2013-07-27 21:10:00,63.5,55.8,29.99,ESE,120,0.0,0.0,76,0.00,,---,0.48,VWS V14.01,2013-07-28 02:10:00,
2013-07-27 21:13:00,63.5,55.8,29.99,ESE,120,0.0,0.0,76,0.00,,---,0.48,VWS V14.01,2013-07-28 02:13:00,
2013-07-27 21:15:00,63.5,55.8,29.99,ESE,120,0.0,0.0,76,0.00,,---,0.48,VWS V14.01,2013-07-28 02:15:00,
2013-07-27 21:18:00,63.7,56.4,29.99,ESE,120,0.0,0.0,77,0.00,,---,0.48,VWS V14.01,2013-07-28 02:18:00,
2013-07-27 21:20:00,63.7,56.4,29.99,ESE,120,0.0,0.0,77,0.00,,---,0.48,VWS V14.01,2013-07-28 02:20:00,
2013-07-27 21:23:00,63.7,56.4,29.99,ESE,120,0.0,0.0,77,0.00,,---,0.48,VWS V14.01,2013-07-28 02:23:00,
2013-07-27 21:25:00,63.5,56.2,29.99,ESE,120,0.0,0.0,77,0.00,,---,0.48,VWS V14.01,2013-07-28 02:25:00,
2013-07-27 21:28:00,63.7,56.7,29.99,ESE,120,0.0,0.0,78,0.00,,---,0.48,VWS V14.01,2013-07-28 02:28:00,
2013-07-27 21:29:00,63.7,56.7,29.99,ESE,120,0.0,0.0,78,0.00,,---,0.48,VWS V14.01,2013-07-28 02:29:00,
2013-07-27 21:30:00,63.7,56.7,29.99,ESE,120,0.0,0.0,78,0.00,,---,0.48,VWS V14.01,2013-07-28 02:30:00,
2013-07-27 21:33:00,63.7,57.1,29.99,ESE,120,0.0,0.0,79,0.00,,---,0.48,VWS V14.01,2013-07-28 02:33:00,
2013-07-27 21:34:00,63.5,56.9,29.99,ESE,120,0.0,0.0,79,0.00,,---,0.48,VWS V14.01,2013-07-28 02:34:00,
2013-07-27 21:35:00,63.5,56.9,29.99,ESE,120,0.0,0.0,79,0.00,,---,0.48,VWS V14.01,2013-07-28 02:35:00,
2013-07-27 21:38:00,63.2,55.9,29.99,ESE,120,0.0,0.0,77,0.00,,---,0.48,VWS V14.01,2013-07-28 02:38:00,
2013-07-27 21:39:00,63.2,56.2,29.99,ESE,120,0.0,0.0,78,0.00,,---,0.48,VWS V14.01,2013-07-28 02:39:00,
2013-07-27 21:40:00,63.2,55.9,29.99,ESE,120,0.0,0.0,77,0.00,,---,0.48,VWS V14.01,2013-07-28 02:40:00,
2013-07-27 21:43:00,63.2,55.5,29.99,ESE,120,0.0,0.0,76,0.00,,---,0.48,VWS V14.01,2013-07-28 02:43:00,
2013-07-27 21:44:00,63.2,55.5,29.99,ESE,120,0.0,0.0,76,0.00,,---,0.48,VWS V14.01,2013-07-28 02:44:00,
2013-07-27 21:45:00,63.2,55.5,29.99,ESE,120,0.0,0.0,76,0.00,,---,0.48,VWS V14.01,2013-07-28 02:45:00,
2013-07-27 21:48:00,63.2,55.5,30.00,ESE,120,0.0,0.0,76,0.00,,---,0.48,VWS V14.01,2013-07-28 02:48:00,
2013-07-27 21:49:00,63.4,55.7,30.00,ESE,120,0.0,0.0,76,0.00,,---,0.48,VWS V14.01,2013-07-28 02:49:00,
2013-07-27 21:50:00,63.4,55.7,30.00,ESE,120,0.0,0.0,76,0.00,,---,0.48,VWS V14.01,2013-07-28 02:50:00,
2013-07-27 21:53:00,63.2,54.8,30.00,ESE,120,0.0,0.0,74,0.00,,---,0.48,VWS V14.01,2013-07-28 02:53:00,
2013-07-27 21:54:00,63.2,54.8,30.00,ESE,120,0.0,0.0,74,0.00,,---,0.48,VWS V14.01,2013-07-28 02:54:00,
2013-07-27 21:55:00,63.2,54.8,30.00,ESE,120,0.0,0.0,74,0.00,,---,0.48,VWS V14.01,2013-07-28 02:55:00,
2013-07-27 21:59:00,63.4,54.2,30.00,ESE,120,0.0,0.0,72,0.00,,---,0.48,VWS V14.01,2013-07-28 02:59:00,
2013-07-27 22:00:00,63.4,53.8,30.00,ESE,120,0.0,0.0,71,0.00,,---,0.48,VWS V14.01,2013-07-28 03:00:00,
2013-07-27 22:04:00,63.9,54.7,30.01,ESE,120,0.0,0.0,72,0.00,,---,0.48,VWS V14.01,2013-07-28 03:04:00,
2013-07-27 22:05:00,64.0,55.2,30.01,ESE,120,0.0,0.0,73,0.00,,---,0.48,VWS V14.01,2013-07-28 03:05:00,
2013-07-27 22:09:00,64.0,55.9,30.01,ESE,120,0.0,0.0,75,0.00,,---,0.48,VWS V14.01,2013-07-28 03:09:00,
2013-07-27 22:10:00,64.0,56.3,30.01,ESE,120,0.0,0.0,76,0.00,,---,0.48,VWS V14.01,2013-07-28 03:10:00,
2013-07-27 22:14:00,63.9,56.2,30.01,ESE,120,0.0,0.0,76,0.00,,---,0.48,VWS V14.01,2013-07-28 03:14:00,
2013-07-27 22:15:00,63.9,56.6,30.00,ESE,120,0.0,0.0,77,0.00,,---,0.48,VWS V14.01,2013-07-28 03:15:00,
2013-07-27 22:19:00,63.7,56.4,30.00,ESE,120,0.0,0.0,77,0.00,,---,0.48,VWS V14.01,2013-07-28 03:19:00,
2013-07-27 22:20:00,63.5,56.2,30.00,ESE,120,0.0,0.0,77,0.00,,---,0.48,VWS V14.01,2013-07-28 03:20:00,
2013-07-27 22:24:00,63.5,56.2,30.00,ESE,120,0.0,0.0,77,0.00,,---,0.48,VWS V14.01,2013-07-28 03:24:00,
2013-07-27 22:25:00,63.7,56.7,30.00,ESE,120,0.0,0.0,78,0.00,,---,0.48,VWS V14.01,2013-07-28 03:25:00,
2013-07-27 22:26:00,63.7,56.7,30.00,ESE,120,0.0,0.0,78,0.00,,---,0.48,VWS V14.01,2013-07-28 03:26:00,
2013-07-27 22:29:00,63.7,56.7,30.00,ESE,120,0.0,0.0,78,0.00,,---,0.48,VWS V14.01,2013-07-28 03:29:00,
2013-07-27 22:30:00,63.7,57.1,30.01,ESE,120,0.0,0.0,79,0.00,,---,0.48,VWS V14.01,2013-07-28 03:30:00,
2013-07-27 22:31:00,63.7,57.1,30.01,ESE,120,0.0,0.0,79,0.00,,---,0.48,VWS V14.01,2013-07-28 03:31:00,
2013-07-27 22:34:00,63.7,57.4,30.01,ESE,120,0.0,0.0,80,0.00,,---,0.48,VWS V14.01,2013-07-28 03:34:00,
2013-07-27 22:35:00,63.7,57.4,30.01,ESE,120,0.0,0.0,80,0.00,,---,0.48,VWS V14.01,2013-07-28 03:35:00,
2013-07-27 22:36:00,63.7,57.4,30.01,ESE,120,0.0,0.0,80,0.00,,---,0.48,VWS V14.01,2013-07-28 03:36:00,
2013-07-27 22:39:00,63.5,57.2,30.01,ESE,120,0.0,0.0,80,0.00,,---,0.48,VWS V14.01,2013-07-28 03:39:00,
2013-07-27 22:40:00,63.5,57.2,30.01,ESE,120,0.0,0.0,80,0.00,,---,0.48,VWS V14.01,2013-07-28 03:40:00,
2013-07-27 22:41:00,63.5,57.2,30.01,ESE,120,0.0,0.0,80,0.00,,---,0.48,VWS V14.01,2013-07-28 03:41:00,
2013-07-27 22:44:00,63.5,57.6,30.01,ESE,120,0.0,0.0,81,0.00,,---,0.48,VWS V14.01,2013-07-28 03:44:00,
2013-07-27 22:45:00,63.5,57.6,30.01,ESE,120,0.0,0.0,81,0.00,,---,0.48,VWS V14.01,2013-07-28 03:45:00,
2013-07-27 22:46:00,63.7,57.8,30.01,ESE,120,0.0,0.0,81,0.00,,---,0.48,VWS V14.01,2013-07-28 03:46:00,
2013-07-27 22:49:00,63.7,58.1,30.01,ESE,120,0.0,0.0,82,0.00,,---,0.48,VWS V14.01,2013-07-28 03:49:00,
2013-07-27 22:50:00,63.5,57.9,30.01,ESE,120,0.0,0.0,82,0.00,,---,0.48,VWS V14.01,2013-07-28 03:50:00,
2013-07-27 22:51:00,63.5,57.9,30.01,ESE,120,0.0,0.0,82,0.00,,---,0.48,VWS V14.01,2013-07-28 03:51:00,
2013-07-27 22:54:00,63.5,57.9,30.01,ESE,120,0.0,0.0,82,0.00,,---,0.48,VWS V14.01,2013-07-28 03:54:00,
2013-07-27 22:55:00,63.5,57.9,30.01,ESE,120,0.0,0.0,82,0.00,,---,0.48,VWS V14.01,2013-07-28 03:55:00,
2013-07-27 22:56:00,63.5,57.9,30.01,ESE,120,0.0,0.0,82,0.00,,---,0.48,VWS V14.01,2013-07-28 03:56:00,
2013-07-27 22:59:00,63.5,57.9,30.01,ESE,120,0.0,0.0,82,0.00,,---,0.48,VWS V14.01,2013-07-28 03:59:00,
2013-07-27 23:00:00,63.5,57.9,30.01,ESE,120,0.0,0.0,82,0.00,,---,0.48,VWS V14.01,2013-07-28 04:00:00,
2013-07-27 23:01:00,63.5,57.9,30.01,ESE,120,0.0,0.0,82,0.00,,---,0.48,VWS V14.01,2013-07-28 04:01:00,
2013-07-27 23:02:00,63.4,57.8,30.01,ESE,120,0.0,0.0,82,0.00,,---,0.48,VWS V14.01,2013-07-28 04:02:00,
2013-07-27 23:06:00,63.4,57.8,30.01,ESE,120,0.0,0.0,82,0.00,,---,0.48,VWS V14.01,2013-07-28 04:06:00,
2013-07-27 23:07:00,63.4,57.8,30.01,ESE,120,0.0,0.0,82,0.00,,---,0.48,VWS V14.01,2013-07-28 04:07:00,
2013-07-27 23:10:00,63.4,58.2,30.01,ESE,120,0.0,0.0,83,0.00,,---,0.48,VWS V14.01,2013-07-28 04:10:00,
2013-07-27 23:11:00,63.4,58.2,30.01,ESE,120,0.0,0.0,83,0.00,,---,0.48,VWS V14.01,2013-07-28 04:11:00,
2013-07-27 23:12:00,63.4,58.2,30.01,ESE,120,0.0,0.0,83,0.00,,---,0.48,VWS V14.01,2013-07-28 04:12:00,
2013-07-27 23:16:00,63.4,58.2,30.01,ESE,120,0.0,0.0,83,0.00,,---,0.48,VWS V14.01,2013-07-28 04:16:00,
2013-07-27 23:17:00,63.4,58.2,30.01,ESE,120,0.0,0.0,83,0.00,,---,0.48,VWS V14.01,2013-07-28 04:17:00,
2013-07-27 23:20:00,63.4,57.8,30.01,ESE,120,0.0,0.0,82,0.00,,---,0.48,VWS V14.01,2013-07-28 04:20:00,
2013-07-27 23:22:00,63.4,57.8,30.01,ESE,120,0.0,0.0,82,0.00,,---,0.48,VWS V14.01,2013-07-28 04:22:00,
2013-07-27 23:27:00,63.4,57.8,30.01,ESE,120,0.0,0.0,82,0.00,,---,0.48,VWS V14.01,2013-07-28 04:27:00,
2013-07-27 23:30:00,63.2,57.6,30.01,ESE,120,0.0,0.0,82,0.00,,---,0.48,VWS V14.01,2013-07-28 04:30:00,
2013-07-27 23:32:00,63.2,57.6,30.01,ESE,120,0.0,0.0,82,0.00,,---,0.48,VWS V14.01,2013-07-28 04:32:00,
2013-07-27 23:37:00,63.4,57.8,30.01,ESE,120,0.0,0.0,82,0.00,,---,0.48,VWS V14.01,2013-07-28 04:37:00,
2013-07-27 23:40:00,63.2,57.6,30.01,ESE,120,0.0,0.0,82,0.00,,---,0.48,VWS V14.01,2013-07-28 04:40:00,
2013-07-27 23:42:00,63.2,58.0,30.01,ESE,120,0.0,1.0,83,0.00,,---,0.48,VWS V14.01,2013-07-28 04:42:00,
2013-07-27 23:47:00,63.2,58.0,30.00,ESE,120,0.0,1.0,83,0.00,,---,0.48,VWS V14.01,2013-07-28 04:47:00,
2013-07-27 23:50:00,63.2,58.0,30.00,ESE,120,0.0,1.0,83,0.00,,---,0.48,VWS V14.01,2013-07-28 04:50:00,
2013-07-27 23:52:00,63.4,58.2,30.00,ESE,120,0.0,0.0,83,0.00,,---,0.48,VWS V14.01,2013-07-28 04:52:00,
2013-07-27 23:53:00,63.2,58.0,30.00,ESE,120,0.0,0.0,83,0.00,,---,0.48,VWS V14.01,2013-07-28 04:53:00,
2013-07-27 23:57:00,63.4,58.5,30.00,ESE,120,0.0,0.0,84,0.00,,---,0.48,VWS V14.01,2013-07-28 04:57:00,
2013-07-27 23:58:00,63.4,58.5,30.00,ESE,120,0.0,0.0,84,0.00,,---,0.48,VWS V14.01,2013-07-28 04:58:00,